sensor_id;sensor_type;location;lat;lon;timestamp;P1;durP1;ratioP1;P2;durP2;ratioP2
76021;SDS011;64718;52.124;6.226;2023-03-14T09:08:31;2.30;;;0.83;;
76021;SDS011;64718;52.124;6.226;2023-03-14T09:10:58;1.38;;;1.20;;
76021;SDS011;64718;52.124;6.226;2023-03-14T09:13:25;0.95;;;0.90;;
76021;SDS011;64718;52.124;6.226;2023-03-14T09:15:51;1.77;;;0.90;;
76021;SDS011;64718;52.124;6.226;2023-03-14T09:18:18;1.85;;;0.82;;
76021;SDS011;64718;52.124;6.226;2023-03-14T09:20:44;1.52;;;0.60;;
76021;SDS011;64718;52.124;6.226;2023-03-14T09:23:11;1.85;;;0.65;;
76021;SDS011;64718;52.124;6.226;2023-03-14T09:25:39;4.63;;;1.63;;
76021;SDS011;64718;52.124;6.226;2023-03-14T09:28:05;2.05;;;0.80;;
76021;SDS011;64718;52.124;6.226;2023-03-14T09:30:32;3.25;;;0.73;;
76021;SDS011;64718;52.124;6.226;2023-03-14T09:32:59;2.85;;;2.75;;
76021;SDS011;64718;52.124;6.226;2023-03-14T09:35:25;0.70;;;0.70;;
76021;SDS011;64718;52.124;6.226;2023-03-14T09:37:52;2.70;;;0.60;;
76021;SDS011;64718;52.124;6.226;2023-03-14T09:40:19;1.85;;;0.50;;
76021;SDS011;64718;52.124;6.226;2023-03-14T09:42:50;2.75;;;1.00;;
76021;SDS011;64718;52.124;6.226;2023-03-14T09:45:19;1.42;;;0.90;;
76021;SDS011;64718;52.124;6.226;2023-03-14T09:47:51;1.13;;;0.75;;
76021;SDS011;64718;52.124;6.226;2023-03-14T09:50:19;2.83;;;0.98;;
76021;SDS011;64718;52.124;6.226;2023-03-14T09:52:46;1.42;;;0.70;;
76021;SDS011;64718;52.124;6.226;2023-03-14T09:55:16;1.08;;;0.70;;
76021;SDS011;64718;52.124;6.226;2023-03-14T09:57:46;0.93;;;0.85;;
76021;SDS011;64718;52.124;6.226;2023-03-14T10:00:16;1.15;;;0.88;;
76021;SDS011;64718;52.124;6.226;2023-03-14T10:02:47;1.83;;;0.82;;
76021;SDS011;64718;52.124;6.226;2023-03-14T10:05:20;3.20;;;1.25;;
76021;SDS011;64718;52.124;6.226;2023-03-14T10:07:48;1.70;;;0.77;;
76021;SDS011;64718;52.124;6.226;2023-03-14T10:10:16;2.58;;;1.27;;
76021;SDS011;64718;52.124;6.226;2023-03-14T10:12:45;3.33;;;0.77;;
76021;SDS011;64718;52.124;6.226;2023-03-14T10:15:13;2.72;;;0.30;;
76021;SDS011;64718;52.124;6.226;2023-03-14T10:17:50;3.47;;;1.55;;
76021;SDS011;64718;52.124;6.226;2023-03-14T10:20:27;2.03;;;0.85;;
76021;SDS011;64718;52.124;6.226;2023-03-14T10:22:58;6.25;;;1.33;;
76021;SDS011;64718;52.124;6.226;2023-03-14T10:25:26;1.95;;;1.42;;
76021;SDS011;64718;52.124;6.226;2023-03-14T10:27:54;4.30;;;1.08;;
76021;SDS011;64718;52.124;6.226;2023-03-14T10:30:33;2.92;;;1.58;;
76021;SDS011;64718;52.124;6.226;2023-03-14T10:33:09;3.70;;;1.25;;
76021;SDS011;64718;52.124;6.226;2023-03-14T10:35:38;2.15;;;1.13;;
76021;SDS011;64718;52.124;6.226;2023-03-14T10:38:10;4.75;;;1.30;;
76021;SDS011;64718;52.124;6.226;2023-03-14T10:40:39;2.13;;;0.40;;
76021;SDS011;64718;52.124;6.226;2023-03-14T10:43:14;7.88;;;1.48;;
76021;SDS011;64718;52.124;6.226;2023-03-14T10:45:50;3.50;;;0.98;;
76021;SDS011;64718;52.124;6.226;2023-03-14T10:48:23;4.63;;;1.17;;
76021;SDS011;64718;52.124;6.226;2023-03-14T10:50:55;6.63;;;1.42;;
76021;SDS011;64718;52.124;6.226;2023-03-14T10:55:50;7.95;;;2.00;;
76021;SDS011;64718;52.124;6.226;2023-03-14T10:58:21;5.63;;;1.90;;
76021;SDS011;64718;52.124;6.226;2023-03-14T11:00:52;7.70;;;1.67;;
76021;SDS011;64718;52.124;6.226;2023-03-14T11:03:26;9.98;;;2.22;;
76021;SDS011;64718;52.124;6.226;2023-03-14T11:05:57;10.70;;;1.27;;
76021;SDS011;64718;52.124;6.226;2023-03-14T11:08:30;7.13;;;1.60;;
76021;SDS011;64718;52.124;6.226;2023-03-14T11:11:05;7.05;;;1.83;;
76021;SDS011;64718;52.124;6.226;2023-03-14T11:13:42;5.63;;;1.42;;
76021;SDS011;64718;52.124;6.226;2023-03-14T11:16:20;3.05;;;1.80;;
76021;SDS011;64718;52.124;6.226;2023-03-14T11:18:58;5.07;;;1.92;;
76021;SDS011;64718;52.124;6.226;2023-03-14T11:21:37;8.55;;;1.70;;
76021;SDS011;64718;52.124;6.226;2023-03-14T11:24:17;15.55;;;2.85;;
76021;SDS011;64718;52.124;6.226;2023-03-14T11:26:56;7.05;;;2.22;;
76021;SDS011;64718;52.124;6.226;2023-03-14T11:29:30;6.95;;;2.05;;
76021;SDS011;64718;52.124;6.226;2023-03-14T11:32:08;5.90;;;1.38;;
76021;SDS011;64718;52.124;6.226;2023-03-14T11:34:39;7.10;;;1.65;;
76021;SDS011;64718;52.124;6.226;2023-03-14T11:37:13;7.18;;;2.22;;
76021;SDS011;64718;52.124;6.226;2023-03-14T11:39:44;8.57;;;2.17;;
76021;SDS011;64718;52.124;6.226;2023-03-14T11:44:46;12.68;;;2.03;;
76021;SDS011;64718;52.124;6.226;2023-03-14T11:47:17;10.88;;;1.92;;
76021;SDS011;64718;52.124;6.226;2023-03-14T11:49:48;15.02;;;2.70;;
76021;SDS011;64718;52.124;6.226;2023-03-14T11:52:17;6.88;;;1.88;;
76021;SDS011;64718;52.124;6.226;2023-03-14T11:54:49;6.13;;;2.05;;
76021;SDS011;64718;52.124;6.226;2023-03-14T11:57:21;9.07;;;2.17;;
76021;SDS011;64718;52.124;6.226;2023-03-14T11:59:50;9.05;;;1.33;;
76021;SDS011;64718;52.124;6.226;2023-03-14T12:02:24;10.45;;;1.38;;
76021;SDS011;64718;52.124;6.226;2023-03-14T12:05:20;2.72;;;1.33;;
76021;SDS011;64718;52.124;6.226;2023-03-14T12:11:01;8.20;;;1.70;;
76021;SDS011;64718;52.124;6.226;2023-03-14T12:13:31;5.22;;;2.08;;
76021;SDS011;64718;52.124;6.226;2023-03-14T12:16:04;9.90;;;2.72;;
76021;SDS011;64718;52.124;6.226;2023-03-14T12:18:34;7.47;;;1.23;;
76021;SDS011;64718;52.124;6.226;2023-03-14T12:21:04;8.32;;;2.15;;
76021;SDS011;64718;52.124;6.226;2023-03-14T12:23:34;5.40;;;2.03;;
76021;SDS011;64718;52.124;6.226;2023-03-14T12:26:14;8.63;;;1.55;;
76021;SDS011;64718;52.124;6.226;2023-03-14T12:28:43;8.77;;;1.67;;
76021;SDS011;64718;52.124;6.226;2023-03-14T12:37:00;8.70;;;1.20;;
76021;SDS011;64718;52.124;6.226;2023-03-14T12:39:34;4.28;;;1.40;;
76021;SDS011;64718;52.124;6.226;2023-03-14T12:42:09;5.47;;;1.35;;
76021;SDS011;64718;52.124;6.226;2023-03-14T12:44:41;4.45;;;1.42;;
76021;SDS011;64718;52.124;6.226;2023-03-14T12:50:18;4.55;;;1.48;;
76021;SDS011;64718;52.124;6.226;2023-03-14T12:52:51;6.22;;;1.70;;
76021;SDS011;64718;52.124;6.226;2023-03-14T12:55:29;5.82;;;1.67;;
76021;SDS011;64718;52.124;6.226;2023-03-14T12:58:03;5.68;;;0.88;;
76021;SDS011;64718;52.124;6.226;2023-03-14T13:00:39;5.78;;;1.27;;
76021;SDS011;64718;52.124;6.226;2023-03-14T13:03:15;6.13;;;0.85;;
76021;SDS011;64718;52.124;6.226;2023-03-14T13:05:55;12.63;;;1.45;;
76021;SDS011;64718;52.124;6.226;2023-03-14T13:08:32;4.85;;;3.00;;
76021;SDS011;64718;52.124;6.226;2023-03-14T13:11:01;6.85;;;1.13;;
76021;SDS011;64718;52.124;6.226;2023-03-14T13:13:31;1.90;;;1.23;;
76021;SDS011;64718;52.124;6.226;2023-03-14T13:16:01;9.20;;;1.35;;
76021;SDS011;64718;52.124;6.226;2023-03-14T13:18:30;4.60;;;1.48;;
76021;SDS011;64718;52.124;6.226;2023-03-14T13:21:03;5.90;;;1.50;;
76021;SDS011;64718;52.124;6.226;2023-03-14T13:23:33;3.58;;;1.13;;
76021;SDS011;64718;52.124;6.226;2023-03-14T13:26:01;3.25;;;0.95;;
76021;SDS011;64718;52.124;6.226;2023-03-14T13:28:29;1.45;;;0.82;;
76021;SDS011;64718;52.124;6.226;2023-03-14T13:30:57;3.70;;;0.98;;
76021;SDS011;64718;52.124;6.226;2023-03-14T13:33:25;1.90;;;1.67;;
76021;SDS011;64718;52.124;6.226;2023-03-14T13:35:55;2.70;;;1.15;;
76021;SDS011;64718;52.124;6.226;2023-03-14T13:38:25;3.72;;;0.90;;
76021;SDS011;64718;52.124;6.226;2023-03-14T13:40:53;5.40;;;0.80;;
76021;SDS011;64718;52.124;6.226;2023-03-14T13:43:25;3.55;;;0.30;;
76021;SDS011;64718;52.124;6.226;2023-03-14T13:45:56;2.22;;;0.80;;
76021;SDS011;64718;52.124;6.226;2023-03-14T13:48:29;3.00;;;1.23;;
76021;SDS011;64718;52.124;6.226;2023-03-14T13:50:58;5.50;;;1.02;;
76021;SDS011;64718;52.124;6.226;2023-03-14T13:53:29;4.55;;;1.30;;
76021;SDS011;64718;52.124;6.226;2023-03-14T13:55:55;2.88;;;0.90;;
76021;SDS011;64718;52.124;6.226;2023-03-14T13:58:23;2.45;;;1.08;;
76021;SDS011;64718;52.124;6.226;2023-03-14T14:00:59;3.40;;;1.10;;
76021;SDS011;64718;52.124;6.226;2023-03-14T14:03:30;2.55;;;1.20;;
76021;SDS011;64718;52.124;6.226;2023-03-14T14:05:58;1.88;;;0.57;;
76021;SDS011;64718;52.124;6.226;2023-03-14T14:08:25;1.40;;;1.17;;
76021;SDS011;64718;52.124;6.226;2023-03-14T14:10:55;3.13;;;0.93;;
76021;SDS011;64718;52.124;6.226;2023-03-14T14:13:25;7.95;;;1.42;;
76021;SDS011;64718;52.124;6.226;2023-03-14T14:15:55;3.40;;;1.38;;
76021;SDS011;64718;52.124;6.226;2023-03-14T14:18:24;2.20;;;0.73;;
76021;SDS011;64718;52.124;6.226;2023-03-14T14:20:53;2.92;;;0.88;;
76021;SDS011;64718;52.124;6.226;2023-03-14T14:23:21;3.10;;;0.60;;
76021;SDS011;64718;52.124;6.226;2023-03-14T14:25:51;1.90;;;0.90;;
76021;SDS011;64718;52.124;6.226;2023-03-14T14:28:22;1.42;;;0.60;;
76021;SDS011;64718;52.124;6.226;2023-03-14T14:31:02;2.90;;;1.17;;
76021;SDS011;64718;52.124;6.226;2023-03-14T14:33:43;2.22;;;0.60;;
76021;SDS011;64718;52.124;6.226;2023-03-14T14:36:15;2.22;;;0.80;;
76021;SDS011;64718;52.124;6.226;2023-03-14T14:38:56;3.75;;;1.10;;
76021;SDS011;64718;52.124;6.226;2023-03-14T14:41:26;2.13;;;0.82;;
76021;SDS011;64718;52.124;6.226;2023-03-14T14:43:55;2.15;;;0.88;;
76021;SDS011;64718;52.124;6.226;2023-03-14T14:46:22;1.15;;;1.05;;
76021;SDS011;64718;52.124;6.226;2023-03-14T14:48:54;5.20;;;0.93;;
76021;SDS011;64718;52.124;6.226;2023-03-14T14:51:23;2.70;;;1.20;;
76021;SDS011;64718;52.124;6.226;2023-03-14T14:54:00;3.35;;;0.90;;
76021;SDS011;64718;52.124;6.226;2023-03-14T14:56:29;3.25;;;0.98;;
76021;SDS011;64718;52.124;6.226;2023-03-14T14:58:59;3.80;;;0.95;;
76021;SDS011;64718;52.124;6.226;2023-03-14T15:01:30;2.58;;;0.73;;
76021;SDS011;64718;52.124;6.226;2023-03-14T15:03:59;2.13;;;0.13;;
76021;SDS011;64718;52.124;6.226;2023-03-14T15:06:27;1.65;;;0.73;;
76021;SDS011;64718;52.124;6.226;2023-03-14T15:08:56;3.17;;;0.95;;
76021;SDS011;64718;52.124;6.226;2023-03-14T15:11:24;3.55;;;1.10;;
76021;SDS011;64718;52.124;6.226;2023-03-14T15:13:52;3.30;;;0.77;;
76021;SDS011;64718;52.124;6.226;2023-03-14T15:16:21;5.57;;;1.10;;
76021;SDS011;64718;52.124;6.226;2023-03-14T15:18:50;5.20;;;1.08;;
76021;SDS011;64718;52.124;6.226;2023-03-14T15:21:20;2.20;;;1.55;;
76021;SDS011;64718;52.124;6.226;2023-03-14T15:23:46;5.25;;;1.60;;
76021;SDS011;64718;52.124;6.226;2023-03-14T15:26:13;2.15;;;1.08;;
76021;SDS011;64718;52.124;6.226;2023-03-14T15:28:42;6.40;;;1.45;;
76021;SDS011;64718;52.124;6.226;2023-03-14T15:31:09;3.28;;;1.08;;
76021;SDS011;64718;52.124;6.226;2023-03-14T15:33:38;2.35;;;0.77;;
76021;SDS011;64718;52.124;6.226;2023-03-14T15:36:06;1.77;;;1.35;;
76021;SDS011;64718;52.124;6.226;2023-03-14T15:38:40;3.67;;;0.80;;
76021;SDS011;64718;52.124;6.226;2023-03-14T15:41:07;2.75;;;1.40;;
76021;SDS011;64718;52.124;6.226;2023-03-14T15:46:02;2.33;;;1.00;;
76021;SDS011;64718;52.124;6.226;2023-03-14T15:48:31;5.18;;;0.98;;
76021;SDS011;64718;52.124;6.226;2023-03-14T15:50:59;3.90;;;1.30;;
76021;SDS011;64718;52.124;6.226;2023-03-14T15:53:25;3.20;;;1.20;;
76021;SDS011;64718;52.124;6.226;2023-03-14T15:55:52;1.80;;;1.30;;
76021;SDS011;64718;52.124;6.226;2023-03-14T15:58:19;5.95;;;1.42;;
76021;SDS011;64718;52.124;6.226;2023-03-14T16:00:46;7.70;;;1.40;;
76021;SDS011;64718;52.124;6.226;2023-03-14T16:03:12;3.35;;;1.30;;
76021;SDS011;64718;52.124;6.226;2023-03-14T16:05:39;8.23;;;1.60;;
76021;SDS011;64718;52.124;6.226;2023-03-14T16:08:07;3.53;;;1.15;;
76021;SDS011;64718;52.124;6.226;2023-03-14T16:10:34;6.03;;;1.33;;
76021;SDS011;64718;52.124;6.226;2023-03-14T16:13:01;4.75;;;1.10;;
76021;SDS011;64718;52.124;6.226;2023-03-14T16:15:28;5.13;;;1.38;;
76021;SDS011;64718;52.124;6.226;2023-03-14T16:17:54;2.95;;;1.25;;
76021;SDS011;64718;52.124;6.226;2023-03-14T16:20:22;4.32;;;1.63;;
76021;SDS011;64718;52.124;6.226;2023-03-14T16:22:49;5.20;;;1.17;;
76021;SDS011;64718;52.124;6.226;2023-03-14T16:25:17;3.38;;;1.00;;
76021;SDS011;64718;52.124;6.226;2023-03-14T16:27:44;7.07;;;2.53;;
76021;SDS011;64718;52.124;6.226;2023-03-14T16:30:10;4.95;;;1.35;;
76021;SDS011;64718;52.124;6.226;2023-03-14T16:32:38;4.07;;;1.05;;
76021;SDS011;64718;52.124;6.226;2023-03-14T16:35:05;2.50;;;1.02;;
76021;SDS011;64718;52.124;6.226;2023-03-14T16:37:32;3.33;;;1.27;;
76021;SDS011;64718;52.124;6.226;2023-03-14T16:39:59;2.25;;;1.27;;
76021;SDS011;64718;52.124;6.226;2023-03-14T16:42:27;6.50;;;1.17;;
76021;SDS011;64718;52.124;6.226;2023-03-14T16:44:53;3.33;;;1.17;;
76021;SDS011;64718;52.124;6.226;2023-03-14T16:47:20;3.03;;;0.95;;
76021;SDS011;64718;52.124;6.226;2023-03-14T16:49:46;2.72;;;1.10;;
76021;SDS011;64718;52.124;6.226;2023-03-14T16:52:13;3.40;;;1.10;;
76021;SDS011;64718;52.124;6.226;2023-03-14T16:54:39;1.30;;;0.90;;
76021;SDS011;64718;52.124;6.226;2023-03-14T16:57:06;2.92;;;0.93;;
76021;SDS011;64718;52.124;6.226;2023-03-14T16:59:34;6.25;;;1.23;;
76021;SDS011;64718;52.124;6.226;2023-03-14T17:02:00;0.90;;;0.70;;
76021;SDS011;64718;52.124;6.226;2023-03-14T17:04:27;3.90;;;0.88;;
76021;SDS011;64718;52.124;6.226;2023-03-14T17:06:53;5.35;;;1.33;;
76021;SDS011;64718;52.124;6.226;2023-03-14T17:09:20;3.20;;;0.93;;
76021;SDS011;64718;52.124;6.226;2023-03-14T17:11:46;3.17;;;0.80;;
76021;SDS011;64718;52.124;6.226;2023-03-14T17:14:13;4.63;;;1.00;;
76021;SDS011;64718;52.124;6.226;2023-03-14T17:16:41;5.30;;;1.15;;
76021;SDS011;64718;52.124;6.226;2023-03-14T17:19:07;3.33;;;1.05;;
76021;SDS011;64718;52.124;6.226;2023-03-14T17:21:34;4.13;;;1.45;;
76021;SDS011;64718;52.124;6.226;2023-03-14T17:24:00;4.28;;;1.45;;
76021;SDS011;64718;52.124;6.226;2023-03-14T17:26:27;4.78;;;0.88;;
76021;SDS011;64718;52.124;6.226;2023-03-14T17:28:54;6.00;;;1.17;;
76021;SDS011;64718;52.124;6.226;2023-03-14T17:31:20;5.93;;;0.93;;
76021;SDS011;64718;52.124;6.226;2023-03-14T17:33:49;5.03;;;1.35;;
76021;SDS011;64718;52.124;6.226;2023-03-14T17:36:16;6.72;;;1.15;;
76021;SDS011;64718;52.124;6.226;2023-03-14T17:38:43;6.07;;;1.25;;
76021;SDS011;64718;52.124;6.226;2023-03-14T17:41:11;4.18;;;1.13;;
76021;SDS011;64718;52.124;6.226;2023-03-14T17:43:38;3.55;;;1.10;;
76021;SDS011;64718;52.124;6.226;2023-03-14T17:46:05;3.80;;;1.17;;
76021;SDS011;64718;52.124;6.226;2023-03-14T17:48:35;5.82;;;2.30;;
76021;SDS011;64718;52.124;6.226;2023-03-14T17:51:03;3.17;;;1.58;;
76021;SDS011;64718;52.124;6.226;2023-03-14T17:53:30;3.55;;;1.30;;
76021;SDS011;64718;52.124;6.226;2023-03-14T17:55:57;4.20;;;0.90;;
76021;SDS011;64718;52.124;6.226;2023-03-14T17:58:24;4.13;;;1.55;;
76021;SDS011;64718;52.124;6.226;2023-03-14T18:00:51;6.65;;;2.03;;
76021;SDS011;64718;52.124;6.226;2023-03-14T18:03:17;6.40;;;1.92;;
76021;SDS011;64718;52.124;6.226;2023-03-14T18:05:44;6.82;;;1.98;;
76021;SDS011;64718;52.124;6.226;2023-03-14T18:08:13;5.45;;;1.40;;
76021;SDS011;64718;52.124;6.226;2023-03-14T18:10:40;4.07;;;1.40;;
76021;SDS011;64718;52.124;6.226;2023-03-14T18:13:07;6.22;;;2.58;;
76021;SDS011;64718;52.124;6.226;2023-03-14T18:15:34;6.38;;;3.30;;
76021;SDS011;64718;52.124;6.226;2023-03-14T18:18:01;4.82;;;2.53;;
76021;SDS011;64718;52.124;6.226;2023-03-14T18:20:27;10.05;;;2.63;;
76021;SDS011;64718;52.124;6.226;2023-03-14T18:22:54;4.80;;;2.40;;
76021;SDS011;64718;52.124;6.226;2023-03-14T18:25:22;7.53;;;3.47;;
76021;SDS011;64718;52.124;6.226;2023-03-14T18:27:49;5.15;;;2.97;;
76021;SDS011;64718;52.124;6.226;2023-03-14T18:30:16;2.97;;;2.20;;
76021;SDS011;64718;52.124;6.226;2023-03-14T18:32:44;4.63;;;2.05;;
76021;SDS011;64718;52.124;6.226;2023-03-14T18:35:10;3.75;;;1.83;;
76021;SDS011;64718;52.124;6.226;2023-03-14T18:37:37;4.00;;;1.35;;
76021;SDS011;64718;52.124;6.226;2023-03-14T18:40:04;4.82;;;2.22;;
76021;SDS011;64718;52.124;6.226;2023-03-14T18:42:35;7.43;;;2.05;;
76021;SDS011;64718;52.124;6.226;2023-03-14T18:45:02;4.82;;;2.40;;
76021;SDS011;64718;52.124;6.226;2023-03-14T18:47:29;4.20;;;2.03;;
76021;SDS011;64718;52.124;6.226;2023-03-14T18:49:59;4.50;;;1.65;;
76021;SDS011;64718;52.124;6.226;2023-03-14T18:52:26;9.90;;;2.00;;
76021;SDS011;64718;52.124;6.226;2023-03-14T18:54:53;3.35;;;1.45;;
76021;SDS011;64718;52.124;6.226;2023-03-14T18:57:19;7.28;;;1.92;;
76021;SDS011;64718;52.124;6.226;2023-03-14T18:59:47;5.13;;;2.25;;
76021;SDS011;64718;52.124;6.226;2023-03-14T19:02:16;4.25;;;2.58;;
76021;SDS011;64718;52.124;6.226;2023-03-14T19:04:43;5.38;;;1.45;;
76021;SDS011;64718;52.124;6.226;2023-03-14T19:07:09;10.95;;;1.85;;
76021;SDS011;64718;52.124;6.226;2023-03-14T19:09:38;7.22;;;2.45;;
76021;SDS011;64718;52.124;6.226;2023-03-14T19:12:04;4.13;;;2.10;;
76021;SDS011;64718;52.124;6.226;2023-03-14T19:14:31;4.15;;;2.17;;
76021;SDS011;64718;52.124;6.226;2023-03-14T19:16:59;5.95;;;1.20;;
76021;SDS011;64718;52.124;6.226;2023-03-14T19:19:25;3.88;;;1.98;;
76021;SDS011;64718;52.124;6.226;2023-03-14T19:21:52;2.85;;;1.38;;
76021;SDS011;64718;52.124;6.226;2023-03-14T19:24:19;5.53;;;0.93;;
76021;SDS011;64718;52.124;6.226;2023-03-14T19:26:46;3.45;;;1.17;;
76021;SDS011;64718;52.124;6.226;2023-03-14T19:29:13;8.18;;;1.73;;
76021;SDS011;64718;52.124;6.226;2023-03-14T19:31:40;5.78;;;1.27;;
76021;SDS011;64718;52.124;6.226;2023-03-14T19:34:07;7.22;;;1.48;;
76021;SDS011;64718;52.124;6.226;2023-03-14T19:36:35;5.40;;;1.30;;
76021;SDS011;64718;52.124;6.226;2023-03-14T19:39:02;4.13;;;1.75;;
76021;SDS011;64718;52.124;6.226;2023-03-14T19:41:31;4.60;;;2.13;;
76021;SDS011;64718;52.124;6.226;2023-03-14T19:43:58;5.32;;;0.93;;
76021;SDS011;64718;52.124;6.226;2023-03-14T19:46:25;10.77;;;1.33;;
76021;SDS011;64718;52.124;6.226;2023-03-14T19:48:51;3.38;;;1.33;;
76021;SDS011;64718;52.124;6.226;2023-03-14T19:53:48;5.88;;;1.50;;
76021;SDS011;64718;52.124;6.226;2023-03-14T19:56:15;4.95;;;1.45;;
76021;SDS011;64718;52.124;6.226;2023-03-14T19:58:43;5.97;;;1.33;;
76021;SDS011;64718;52.124;6.226;2023-03-14T20:01:10;3.72;;;1.08;;
76021;SDS011;64718;52.124;6.226;2023-03-14T20:03:37;5.93;;;1.20;;
76021;SDS011;64718;52.124;6.226;2023-03-14T20:06:04;3.08;;;1.65;;
76021;SDS011;64718;52.124;6.226;2023-03-14T20:08:33;5.28;;;1.50;;
76021;SDS011;64718;52.124;6.226;2023-03-14T20:11:01;2.20;;;1.40;;
76021;SDS011;64718;52.124;6.226;2023-03-14T20:13:29;8.90;;;1.65;;
76021;SDS011;64718;52.124;6.226;2023-03-14T20:15:55;7.78;;;2.95;;
76021;SDS011;64718;52.124;6.226;2023-03-14T20:18:22;6.05;;;2.90;;
76021;SDS011;64718;52.124;6.226;2023-03-14T20:20:48;8.63;;;3.58;;
76021;SDS011;64718;52.124;6.226;2023-03-14T20:23:15;5.93;;;3.25;;
76021;SDS011;64718;52.124;6.226;2023-03-14T20:25:43;4.32;;;3.13;;
76021;SDS011;64718;52.124;6.226;2023-03-14T20:28:11;7.15;;;3.67;;
76021;SDS011;64718;52.124;6.226;2023-03-14T20:30:37;4.28;;;2.40;;
76021;SDS011;64718;52.124;6.226;2023-03-14T20:33:04;5.57;;;2.25;;
76021;SDS011;64718;52.124;6.226;2023-03-14T20:35:30;3.90;;;3.17;;
76021;SDS011;64718;52.124;6.226;2023-03-14T20:37:57;5.32;;;3.85;;
76021;SDS011;64718;52.124;6.226;2023-03-14T20:40:23;3.88;;;3.10;;
76021;SDS011;64718;52.124;6.226;2023-03-14T20:42:53;5.78;;;2.53;;
76021;SDS011;64718;52.124;6.226;2023-03-14T20:45:20;5.28;;;2.28;;
76021;SDS011;64718;52.124;6.226;2023-03-14T20:47:47;3.90;;;1.30;;
76021;SDS011;64718;52.124;6.226;2023-03-14T20:50:13;3.15;;;1.75;;
76021;SDS011;64718;52.124;6.226;2023-03-14T20:52:40;6.68;;;1.60;;
76021;SDS011;64718;52.124;6.226;2023-03-14T20:55:07;3.85;;;1.40;;
76021;SDS011;64718;52.124;6.226;2023-03-14T20:57:34;9.57;;;1.10;;
76021;SDS011;64718;52.124;6.226;2023-03-14T21:00:02;3.38;;;1.30;;
76021;SDS011;64718;52.124;6.226;2023-03-14T21:02:31;10.40;;;1.50;;
76021;SDS011;64718;52.124;6.226;2023-03-14T21:05:00;4.32;;;1.70;;
76021;SDS011;64718;52.124;6.226;2023-03-14T21:07:28;4.93;;;1.30;;
76021;SDS011;64718;52.124;6.226;2023-03-14T21:09:55;5.28;;;2.10;;
76021;SDS011;64718;52.124;6.226;2023-03-14T21:12:21;6.15;;;1.60;;
76021;SDS011;64718;52.124;6.226;2023-03-14T21:14:48;4.20;;;1.73;;
76021;SDS011;64718;52.124;6.226;2023-03-14T21:17:16;4.90;;;1.67;;
76021;SDS011;64718;52.124;6.226;2023-03-14T21:19:42;5.72;;;2.40;;
76021;SDS011;64718;52.124;6.226;2023-03-14T21:22:09;4.10;;;1.63;;
76021;SDS011;64718;52.124;6.226;2023-03-14T21:24:42;5.65;;;1.95;;
76021;SDS011;64718;52.124;6.226;2023-03-14T21:27:09;6.72;;;2.10;;
76021;SDS011;64718;52.124;6.226;2023-03-14T21:29:36;3.00;;;0.65;;
76021;SDS011;64718;52.124;6.226;2023-03-14T21:32:03;3.50;;;1.27;;
76021;SDS011;64718;52.124;6.226;2023-03-14T21:34:31;4.07;;;1.50;;
76021;SDS011;64718;52.124;6.226;2023-03-14T21:36:58;1.88;;;1.05;;
76021;SDS011;64718;52.124;6.226;2023-03-14T21:39:24;3.92;;;1.27;;
76021;SDS011;64718;52.124;6.226;2023-03-14T21:41:51;5.18;;;1.27;;
76021;SDS011;64718;52.124;6.226;2023-03-14T21:44:17;3.75;;;2.10;;
76021;SDS011;64718;52.124;6.226;2023-03-14T21:46:45;4.45;;;1.00;;
76021;SDS011;64718;52.124;6.226;2023-03-14T21:49:12;4.45;;;1.23;;
76021;SDS011;64718;52.124;6.226;2023-03-14T21:51:40;1.90;;;1.15;;
76021;SDS011;64718;52.124;6.226;2023-03-14T21:54:10;11.27;;;1.80;;
76021;SDS011;64718;52.124;6.226;2023-03-14T21:56:39;4.13;;;1.42;;
76021;SDS011;64718;52.124;6.226;2023-03-14T21:59:06;6.95;;;1.50;;
76021;SDS011;64718;52.124;6.226;2023-03-14T22:01:33;3.05;;;1.52;;
76021;SDS011;64718;52.124;6.226;2023-03-14T22:04:00;4.53;;;1.48;;
76021;SDS011;64718;52.124;6.226;2023-03-14T22:06:27;3.40;;;1.30;;
76021;SDS011;64718;52.124;6.226;2023-03-14T22:08:55;3.17;;;1.45;;
76021;SDS011;64718;52.124;6.226;2023-03-14T22:11:22;2.80;;;1.00;;
76021;SDS011;64718;52.124;6.226;2023-03-14T22:13:49;5.47;;;1.20;;
76021;SDS011;64718;52.124;6.226;2023-03-14T22:16:16;7.20;;;1.92;;
76021;SDS011;64718;52.124;6.226;2023-03-14T22:18:42;6.15;;;1.38;;
76021;SDS011;64718;52.124;6.226;2023-03-14T22:21:09;5.22;;;1.50;;
76021;SDS011;64718;52.124;6.226;2023-03-14T22:23:36;3.85;;;1.92;;
76021;SDS011;64718;52.124;6.226;2023-03-14T22:26:04;7.53;;;1.65;;
76021;SDS011;64718;52.124;6.226;2023-03-14T22:28:30;5.88;;;2.00;;
76021;SDS011;64718;52.124;6.226;2023-03-14T22:30:57;5.57;;;1.90;;
76021;SDS011;64718;52.124;6.226;2023-03-14T22:33:23;11.05;;;2.10;;
76021;SDS011;64718;52.124;6.226;2023-03-14T22:35:50;5.80;;;1.75;;
76021;SDS011;64718;52.124;6.226;2023-03-14T22:38:18;7.57;;;1.75;;
76021;SDS011;64718;52.124;6.226;2023-03-14T22:40:45;4.30;;;1.65;;
76021;SDS011;64718;52.124;6.226;2023-03-14T22:43:12;5.50;;;1.52;;
76021;SDS011;64718;52.124;6.226;2023-03-14T22:45:39;5.22;;;1.90;;
76021;SDS011;64718;52.124;6.226;2023-03-14T22:48:05;2.80;;;1.75;;
76021;SDS011;64718;52.124;6.226;2023-03-14T22:50:33;4.03;;;1.63;;
76021;SDS011;64718;52.124;6.226;2023-03-14T22:52:59;3.65;;;2.15;;
76021;SDS011;64718;52.124;6.226;2023-03-14T22:55:27;4.18;;;1.80;;
76021;SDS011;64718;52.124;6.226;2023-03-14T22:57:53;6.00;;;1.40;;
76021;SDS011;64718;52.124;6.226;2023-03-14T23:00:23;5.70;;;2.47;;
76021;SDS011;64718;52.124;6.226;2023-03-14T23:02:51;4.65;;;1.20;;
76021;SDS011;64718;52.124;6.226;2023-03-14T23:05:17;4.18;;;1.55;;
76021;SDS011;64718;52.124;6.226;2023-03-14T23:07:44;3.33;;;1.50;;
76021;SDS011;64718;52.124;6.226;2023-03-14T23:10:11;5.13;;;1.85;;
76021;SDS011;64718;52.124;6.226;2023-03-14T23:12:37;4.95;;;1.85;;
76021;SDS011;64718;52.124;6.226;2023-03-14T23:15:04;2.28;;;1.50;;
76021;SDS011;64718;52.124;6.226;2023-03-14T23:17:33;4.63;;;2.28;;
76021;SDS011;64718;52.124;6.226;2023-03-14T23:20:00;5.10;;;2.13;;
76021;SDS011;64718;52.124;6.226;2023-03-14T23:22:30;4.93;;;2.15;;
76021;SDS011;64718;52.124;6.226;2023-03-14T23:24:58;6.53;;;2.33;;
76021;SDS011;64718;52.124;6.226;2023-03-14T23:27:24;4.90;;;2.00;;
76021;SDS011;64718;52.124;6.226;2023-03-14T23:29:51;4.05;;;1.48;;
76021;SDS011;64718;52.124;6.226;2023-03-14T23:32:17;5.13;;;2.08;;
76021;SDS011;64718;52.124;6.226;2023-03-14T23:34:45;3.53;;;1.85;;
76021;SDS011;64718;52.124;6.226;2023-03-14T23:37:12;4.30;;;2.05;;
76021;SDS011;64718;52.124;6.226;2023-03-14T23:39:38;5.13;;;2.10;;
76021;SDS011;64718;52.124;6.226;2023-03-14T23:42:05;3.90;;;2.13;;
76021;SDS011;64718;52.124;6.226;2023-03-14T23:44:32;3.83;;;2.85;;
76021;SDS011;64718;52.124;6.226;2023-03-14T23:46:59;7.20;;;2.58;;
76021;SDS011;64718;52.124;6.226;2023-03-14T23:49:25;4.60;;;2.15;;
76021;SDS011;64718;52.124;6.226;2023-03-14T23:51:53;3.53;;;2.20;;
76021;SDS011;64718;52.124;6.226;2023-03-14T23:54:20;6.00;;;2.50;;
76021;SDS011;64718;52.124;6.226;2023-03-14T23:56:46;5.72;;;2.40;;
76021;SDS011;64718;52.124;6.226;2023-03-14T23:59:13;7.45;;;3.13;;
